Time;durP1;ratioP1;P1;durP2;ratioP2;P2;SDS_P1;SDS_P2;PMS_P1;PMS_P2;Temp;Humidity;BMP_temperature;BMP_pressure;BME280_temperature;BME280_humidity;BME280_pressure;Samples;Min_cycle;Max_cycle;Signal;HPM_P1;HPM_P2
2023/08/20 00:00:20;;;;;;;;;;;17.40;99.90;;;;;;5031844;28;19965;-43
2023/08/20 00:02:47;;;;;;;;;;;17.40;99.90;;;;;;5015849;28;19949;-43
2023/08/20 00:05:15;;;;;;;;;;;17.30;99.90;;;;;;5013072;28;19951;-44
2023/08/20 00:07:42;;;;;;;;;;;17.30;99.90;;;;;;5009154;28;20516;-43
2023/08/20 00:10:09;;;;;;;;;;;17.30;99.90;;;;;;5013143;28;19995;-44
2023/08/20 00:12:36;;;;;;;;;;;17.20;99.90;;;;;;5015657;28;19942;-43
2023/08/20 00:15:05;;;;;;;;;;;17.20;99.90;;;;;;5000551;28;19973;-44
2023/08/20 00:17:34;;;;;;;;;;;17.20;99.90;;;;;;5031532;28;19948;-44
2023/08/20 00:20:01;;;;;;;;;;;17.10;99.90;;;;;;5012730;28;19944;-43
2023/08/20 00:22:27;;;;;;;;;;;17.10;99.90;;;;;;5028230;28;19946;-43
2023/08/20 00:24:54;;;;;;;;;;;17.10;99.90;;;;;;5031729;28;19940;-43
2023/08/20 00:27:21;;;;;;;;;;;17.00;99.90;;;;;;5009591;28;20406;-44
2023/08/20 00:29:48;;;;;;;;;;;17.00;99.90;;;;;;5017052;28;19967;-44
2023/08/20 00:32:15;;;;;;;;;;;17.00;99.90;;;;;;5013187;28;19997;-44
2023/08/20 00:34:43;;;;;;;;;;;17.00;99.90;;;;;;5030524;28;19979;-43
2023/08/20 00:37:10;;;;;;;;;;;16.90;99.90;;;;;;5018173;28;19991;-44
2023/08/20 00:39:36;;;;;;;;;;;16.90;99.90;;;;;;5021484;28;20423;-44
2023/08/20 00:42:04;;;;;;;;;;;16.90;99.90;;;;;;5013577;28;21478;-44
2023/08/20 00:44:31;;;;;;;;;;;16.90;99.90;;;;;;5022284;28;20352;-43
2023/08/20 00:47:00;;;;;;;;;;;16.80;99.90;;;;;;5029734;28;19944;-44
2023/08/20 00:49:26;;;;;;;;;;;16.80;99.90;;;;;;5012988;28;19941;-43
2023/08/20 00:51:54;;;;;;;;;;;16.70;99.90;;;;;;5013566;28;19949;-44
2023/08/20 00:54:21;;;;;;;;;;;16.70;99.90;;;;;;5029387;28;20294;-44
2023/08/20 00:56:48;;;;;;;;;;;16.70;99.90;;;;;;5012381;28;19945;-43
2023/08/20 00:59:14;;;;;;;;;;;16.70;99.90;;;;;;5021326;28;19962;-44
2023/08/20 01:01:41;;;;;;;;;;;16.70;99.90;;;;;;5021145;28;20039;-44
2023/08/20 01:04:08;;;;;;;;;;;16.60;99.90;;;;;;5008591;28;19998;-43
2023/08/20 01:06:37;;;;;;;;;;;16.60;99.90;;;;;;5012242;28;19989;-43
2023/08/20 01:09:07;;;;;;;;;;;16.60;99.90;;;;;;5006820;28;19978;-43
2023/08/20 01:11:34;;;;;;;;;;;16.60;99.90;;;;;;5015537;28;20385;-44
2023/08/20 01:14:01;;;;;;;;;;;16.50;99.90;;;;;;5023414;28;19945;-44
2023/08/20 01:16:28;;;;;;;;;;;16.50;99.90;;;;;;5011380;28;19942;-43
2023/08/20 01:18:54;;;;;;;;;;;16.50;99.90;;;;;;5025407;28;19967;-43
2023/08/20 01:21:34;;;;;;;;;;;16.40;99.90;;;;;;5012865;28;19998;-44
2023/08/20 01:24:11;;;;;;;;;;;16.40;99.90;;;;;;5034068;28;19938;-44
2023/08/20 01:26:49;;;;;;;;;;;16.40;99.90;;;;;;5017438;28;19942;-43
2023/08/20 01:29:17;;;;;;;;;;;16.40;99.90;;;;;;5033948;28;19941;-44
2023/08/20 01:31:44;;;;;;;;;;;16.30;99.90;;;;;;5034417;28;19950;-44
2023/08/20 01:34:11;;;;;;;;;;;16.30;99.90;;;;;;5009241;28;19941;-44
2023/08/20 01:36:38;;;;;;;;;;;16.30;99.90;;;;;;5014956;28;19943;-43
2023/08/20 01:39:05;;;;;;;;;;;16.30;99.90;;;;;;5016725;28;19952;-44
2023/08/20 01:41:32;;;;;;;;;;;16.30;99.90;;;;;;5022420;28;20389;-44
2023/08/20 01:43:59;;;;;;;;;;;16.30;99.90;;;;;;5016926;28;20389;-42
2023/08/20 01:46:27;;;;;;;;;;;16.30;99.90;;;;;;5015842;28;19947;-43
2023/08/20 01:48:53;;;;;;;;;;;16.20;99.90;;;;;;4998624;28;19993;-44
2023/08/20 01:51:20;;;;;;;;;;;16.20;99.90;;;;;;5008312;28;19966;-44
2023/08/20 01:53:47;;;;;;;;;;;16.20;99.90;;;;;;5024611;28;20378;-44
2023/08/20 01:56:14;;;;;;;;;;;16.20;99.90;;;;;;5026600;28;19946;-43
2023/08/20 01:58:41;;;;;;;;;;;16.20;99.90;;;;;;5017919;28;19962;-44
2023/08/20 02:01:08;;;;;;;;;;;16.10;99.90;;;;;;5030770;28;19968;-43
2023/08/20 02:03:37;;;;;;;;;;;16.10;99.90;;;;;;5033917;28;19942;-44
2023/08/20 02:06:03;;;;;;;;;;;16.10;99.90;;;;;;5016263;28;19945;-43
2023/08/20 02:08:30;;;;;;;;;;;16.10;99.90;;;;;;5034030;28;19939;-44
2023/08/20 02:11:00;;;;;;;;;;;16.10;99.90;;;;;;5033756;28;19943;-44
2023/08/20 02:13:27;;;;;;;;;;;16.10;99.90;;;;;;5012713;28;19943;-44
2023/08/20 02:15:58;;;;;;;;;;;16.00;99.90;;;;;;5021613;28;19945;-44
2023/08/20 02:18:24;;;;;;;;;;;16.00;99.90;;;;;;5022846;28;19964;-44
2023/08/20 02:20:53;;;;;;;;;;;16.00;99.90;;;;;;5032488;28;19944;-44
2023/08/20 02:23:19;;;;;;;;;;;16.00;99.90;;;;;;5034542;28;20502;-43
2023/08/20 02:25:46;;;;;;;;;;;16.00;99.90;;;;;;5025733;28;19949;-44
2023/08/20 02:28:12;;;;;;;;;;;15.90;99.90;;;;;;5015255;28;19991;-44
2023/08/20 02:30:40;;;;;;;;;;;15.90;99.90;;;;;;5033674;28;19941;-44
2023/08/20 02:33:07;;;;;;;;;;;15.90;99.90;;;;;;5029257;28;19941;-43
2023/08/20 02:35:33;;;;;;;;;;;15.90;99.90;;;;;;5014317;28;19944;-43
2023/08/20 02:38:01;;;;;;;;;;;15.90;99.90;;;;;;5032817;28;19941;-44
2023/08/20 02:40:28;;;;;;;;;;;15.90;99.90;;;;;;5027505;28;19957;-44
2023/08/20 02:42:55;;;;;;;;;;;15.90;99.90;;;;;;5014755;28;19950;-44
2023/08/20 02:45:21;;;;;;;;;;;15.90;99.90;;;;;;5002384;28;20558;-44
2023/08/20 02:47:48;;;;;;;;;;;15.80;99.90;;;;;;5002764;28;20359;-44
2023/08/20 02:50:15;;;;;;;;;;;15.80;99.90;;;;;;5030038;28;19944;-43
2023/08/20 02:52:42;;;;;;;;;;;15.80;99.90;;;;;;5028245;28;19944;-43
2023/08/20 02:55:10;;;;;;;;;;;15.80;99.90;;;;;;5014472;28;19943;-43
2023/08/20 02:57:37;;;;;;;;;;;15.80;99.90;;;;;;4998704;28;20335;-43
2023/08/20 03:00:04;;;;;;;;;;;15.80;99.90;;;;;;5032968;28;20359;-43
2023/08/20 03:02:31;;;;;;;;;;;15.70;99.90;;;;;;5015661;28;19950;-44
2023/08/20 03:04:58;;;;;;;;;;;15.70;99.90;;;;;;5032319;28;19943;-43
2023/08/20 03:07:24;;;;;;;;;;;15.70;99.90;;;;;;5032920;28;19935;-44
2023/08/20 03:09:51;;;;;;;;;;;15.70;99.90;;;;;;5033162;28;19941;-44
2023/08/20 03:12:19;;;;;;;;;;;15.70;99.90;;;;;;5014919;28;19951;-43
2023/08/20 03:14:46;;;;;;;;;;;15.70;99.90;;;;;;5027196;28;19954;-43
2023/08/20 03:17:12;;;;;;;;;;;15.70;99.90;;;;;;5010428;28;19947;-44
2023/08/20 03:19:45;;;;;;;;;;;15.70;99.90;;;;;;5011730;28;19955;-43
2023/08/20 03:22:12;;;;;;;;;;;15.70;99.90;;;;;;4998621;28;19949;-43
2023/08/20 03:24:39;;;;;;;;;;;15.70;99.90;;;;;;5032717;28;20452;-43
2023/08/20 03:27:05;;;;;;;;;;;15.70;99.90;;;;;;5000471;28;19948;-43
2023/08/20 03:29:33;;;;;;;;;;;15.70;99.90;;;;;;5013967;28;19976;-43
2023/08/20 03:32:00;;;;;;;;;;;15.70;99.90;;;;;;4997230;28;19940;-43
2023/08/20 03:34:27;;;;;;;;;;;15.60;99.90;;;;;;4996764;28;20366;-44
2023/08/20 03:36:54;;;;;;;;;;;15.60;99.90;;;;;;5015642;28;19969;-44
2023/08/20 03:39:20;;;;;;;;;;;15.60;99.90;;;;;;5018472;28;20486;-44
2023/08/20 03:41:47;;;;;;;;;;;15.60;99.90;;;;;;5003640;28;20392;-43
2023/08/20 03:44:14;;;;;;;;;;;15.60;99.90;;;;;;5019236;28;19944;-43
2023/08/20 03:46:42;;;;;;;;;;;15.60;99.90;;;;;;5031438;28;19996;-43
2023/08/20 03:49:08;;;;;;;;;;;15.60;99.90;;;;;;5013592;28;19944;-43
2023/08/20 03:51:35;;;;;;;;;;;15.60;99.90;;;;;;5029133;28;19950;-44
2023/08/20 03:54:02;;;;;;;;;;;15.60;99.90;;;;;;5017102;28;19944;-43
2023/08/20 03:56:28;;;;;;;;;;;15.50;99.90;;;;;;5018426;28;19996;-43
2023/08/20 03:58:56;;;;;;;;;;;15.50;99.90;;;;;;5021005;28;19956;-44
2023/08/20 04:01:22;;;;;;;;;;;15.50;99.90;;;;;;5016967;28;19966;-43
2023/08/20 04:03:50;;;;;;;;;;;15.50;99.90;;;;;;4997655;28;20717;-43
2023/08/20 04:06:17;;;;;;;;;;;15.50;99.90;;;;;;5026765;28;19945;-43
2023/08/20 04:08:44;;;;;;;;;;;15.50;99.90;;;;;;5013826;28;19964;-44
2023/08/20 04:11:11;;;;;;;;;;;15.50;99.90;;;;;;5014729;28;19953;-44
2023/08/20 04:13:39;;;;;;;;;;;15.40;99.90;;;;;;5013785;28;19943;-44
2023/08/20 04:16:06;;;;;;;;;;;15.40;99.90;;;;;;5031907;28;19943;-43
2023/08/20 04:18:33;;;;;;;;;;;15.40;99.90;;;;;;5010640;28;20444;-44
2023/08/20 04:21:01;;;;;;;;;;;15.40;99.90;;;;;;5031256;28;19965;-44
2023/08/20 04:23:27;;;;;;;;;;;15.40;99.90;;;;;;5030077;28;19941;-44
2023/08/20 04:25:54;;;;;;;;;;;15.40;99.90;;;;;;5027163;28;19940;-43
2023/08/20 04:28:21;;;;;;;;;;;15.40;99.90;;;;;;5018675;28;20386;-43
2023/08/20 04:30:49;;;;;;;;;;;15.40;99.90;;;;;;5031658;28;19948;-43
2023/08/20 04:33:15;;;;;;;;;;;15.30;99.90;;;;;;5024423;28;19988;-44
2023/08/20 04:35:42;;;;;;;;;;;15.30;99.90;;;;;;5026427;28;20350;-44
2023/08/20 04:38:10;;;;;;;;;;;15.30;99.90;;;;;;5020838;28;20563;-43
2023/08/20 04:40:37;;;;;;;;;;;15.30;99.90;;;;;;5026156;28;20469;-43
2023/08/20 04:43:03;;;;;;;;;;;15.30;99.90;;;;;;5030904;28;19942;-44
2023/08/20 04:45:30;;;;;;;;;;;15.30;99.90;;;;;;5013910;28;20418;-43
2023/08/20 04:47:57;;;;;;;;;;;15.30;99.90;;;;;;5031539;28;19988;-43
2023/08/20 04:50:23;;;;;;;;;;;15.30;99.90;;;;;;5026230;28;19939;-44
2023/08/20 04:52:50;;;;;;;;;;;15.30;99.90;;;;;;5026071;28;19948;-43
2023/08/20 04:55:18;;;;;;;;;;;15.30;99.90;;;;;;5018865;28;20394;-44
2023/08/20 04:57:45;;;;;;;;;;;15.30;99.90;;;;;;5017197;28;19996;-44
2023/08/20 05:00:12;;;;;;;;;;;15.30;99.90;;;;;;5027890;28;19971;-44
2023/08/20 05:02:39;;;;;;;;;;;15.30;99.90;;;;;;5034625;28;19938;-44
2023/08/20 05:05:06;;;;;;;;;;;15.30;99.90;;;;;;5019434;28;20000;-44
2023/08/20 05:07:33;;;;;;;;;;;15.30;99.90;;;;;;5012178;28;19949;-44
2023/08/20 05:09:59;;;;;;;;;;;15.30;99.90;;;;;;5018346;28;19942;-44
2023/08/20 05:12:27;;;;;;;;;;;15.30;99.90;;;;;;5006435;28;19943;-44
2023/08/20 05:14:54;;;;;;;;;;;15.30;99.90;;;;;;5015879;28;19949;-44
2023/08/20 05:17:21;;;;;;;;;;;15.30;99.90;;;;;;5017250;28;19941;-44
2023/08/20 05:19:47;;;;;;;;;;;15.30;99.90;;;;;;5005599;28;19959;-44
2023/08/20 05:22:14;;;;;;;;;;;15.30;99.90;;;;;;5019818;28;20081;-43
2023/08/20 05:24:41;;;;;;;;;;;15.30;99.90;;;;;;5033633;28;20461;-44
2023/08/20 05:27:08;;;;;;;;;;;15.40;99.90;;;;;;5034798;28;20397;-44
2023/08/20 05:29:36;;;;;;;;;;;15.30;99.90;;;;;;5005859;28;20382;-44
2023/08/20 05:32:03;;;;;;;;;;;15.30;99.90;;;;;;5016515;28;19968;-44
2023/08/20 05:34:29;;;;;;;;;;;15.40;99.90;;;;;;5024641;28;20400;-44
2023/08/20 05:36:56;;;;;;;;;;;15.40;99.90;;;;;;5005264;28;19947;-44
2023/08/20 05:39:23;;;;;;;;;;;15.40;99.90;;;;;;5014931;28;19959;-44
2023/08/20 05:41:50;;;;;;;;;;;15.50;99.90;;;;;;5020769;28;20035;-44
2023/08/20 05:44:16;;;;;;;;;;;15.60;99.90;;;;;;5024655;28;19994;-44
2023/08/20 05:46:45;;;;;;;;;;;15.60;99.90;;;;;;5030634;28;20361;-43
2023/08/20 05:49:12;;;;;;;;;;;15.70;99.90;;;;;;5034240;28;19945;-43
2023/08/20 05:51:39;;;;;;;;;;;15.70;99.90;;;;;;5016243;28;19937;-44
2023/08/20 05:54:06;;;;;;;;;;;15.80;99.90;;;;;;5023743;28;19942;-43
2023/08/20 05:56:32;;;;;;;;;;;15.90;99.90;;;;;;5007622;28;20408;-44
2023/08/20 05:58:59;;;;;;;;;;;16.00;99.90;;;;;;5010848;28;19939;-43
2023/08/20 06:01:26;;;;;;;;;;;16.10;99.90;;;;;;5033631;28;20488;-43
2023/08/20 06:03:54;;;;;;;;;;;16.20;99.90;;;;;;5013745;28;20026;-44
2023/08/20 06:06:20;;;;;;;;;;;16.40;99.90;;;;;;4997760;28;20380;-43
2023/08/20 06:08:47;;;;;;;;;;;16.50;99.90;;;;;;5032486;28;20416;-44
2023/08/20 06:11:14;;;;;;;;;;;16.60;99.90;;;;;;5029280;28;20372;-44
2023/08/20 06:13:40;;;;;;;;;;;16.70;99.90;;;;;;5031251;28;20352;-43
2023/08/20 06:16:07;;;;;;;;;;;16.80;99.90;;;;;;5033204;28;19947;-44
2023/08/20 06:18:34;;;;;;;;;;;16.90;99.90;;;;;;5034869;28;20006;-44
2023/08/20 06:21:02;;;;;;;;;;;17.10;99.90;;;;;;5016243;28;19965;-44
2023/08/20 06:23:29;;;;;;;;;;;17.20;99.90;;;;;;5002495;28;20008;-43
2023/08/20 06:25:56;;;;;;;;;;;17.30;99.90;;;;;;5024253;28;20425;-43
2023/08/20 06:28:22;;;;;;;;;;;17.50;99.90;;;;;;5015592;28;19939;-44
2023/08/20 06:30:49;;;;;;;;;;;17.60;99.90;;;;;;5033096;28;20399;-44
2023/08/20 06:33:16;;;;;;;;;;;17.70;99.90;;;;;;5017077;28;19960;-44
2023/08/20 06:35:42;;;;;;;;;;;17.80;99.90;;;;;;5021942;28;19947;-44
2023/08/20 06:38:10;;;;;;;;;;;17.90;99.90;;;;;;5024387;28;20334;-43
2023/08/20 06:40:37;;;;;;;;;;;18.10;99.90;;;;;;5015679;28;19958;-43
2023/08/20 06:43:04;;;;;;;;;;;18.20;99.90;;;;;;5016180;28;19944;-43
2023/08/20 06:45:31;;;;;;;;;;;18.40;99.90;;;;;;5033548;28;19945;-44
2023/08/20 06:47:58;;;;;;;;;;;18.50;99.90;;;;;;5015822;28;19944;-44
2023/08/20 06:50:25;;;;;;;;;;;18.70;99.90;;;;;;5032393;28;19988;-43
2023/08/20 06:52:51;;;;;;;;;;;18.80;99.90;;;;;;5033244;28;19945;-43
2023/08/20 06:55:20;;;;;;;;;;;18.90;99.90;;;;;;5015959;28;19945;-44
2023/08/20 06:57:46;;;;;;;;;;;19.00;99.90;;;;;;5016410;28;19950;-44
2023/08/20 07:00:13;;;;;;;;;;;19.10;99.90;;;;;;5025483;28;20095;-43
2023/08/20 07:02:40;;;;;;;;;;;19.30;99.90;;;;;;5009392;28;19969;-45
2023/08/20 07:05:09;;;;;;;;;;;19.40;99.90;;;;;;5009226;28;20363;-45
2023/08/20 07:07:35;;;;;;;;;;;19.50;99.90;;;;;;4989347;28;19943;-44
2023/08/20 07:10:03;;;;;;;;;;;19.60;99.90;;;;;;4991486;28;19991;-44
2023/08/20 07:12:31;;;;;;;;;;;19.70;99.90;;;;;;4996953;28;20012;-44
2023/08/20 07:14:58;;;;;;;;;;;19.80;99.90;;;;;;4984458;28;19942;-44
2023/08/20 07:17:24;;;;;;;;;;;19.90;99.90;;;;;;5031550;28;20387;-44
2023/08/20 07:19:51;;;;;;;;;;;20.00;99.90;;;;;;5006265;28;19944;-44
2023/08/20 07:22:18;;;;;;;;;;;20.20;99.90;;;;;;4994425;28;19946;-44
2023/08/20 07:24:44;;;;;;;;;;;20.30;99.90;;;;;;4995189;28;19995;-43
2023/08/20 07:27:12;;;;;;;;;;;20.40;99.90;;;;;;5012133;28;20393;-45
2023/08/20 07:29:41;;;;;;;;;;;20.50;99.90;;;;;;5008157;28;19938;-44
2023/08/20 07:32:07;;;;;;;;;;;20.60;99.90;;;;;;5013365;28;19945;-44
2023/08/20 07:34:34;;;;;;;;;;;20.80;99.90;;;;;;5011922;28;20386;-45
2023/08/20 07:37:01;;;;;;;;;;;20.90;99.90;;;;;;5004730;28;19944;-44
2023/08/20 07:39:28;;;;;;;;;;;21.00;99.90;;;;;;5012085;28;19937;-44
2023/08/20 07:41:55;;;;;;;;;;;21.20;99.90;;;;;;5010153;28;20049;-43
2023/08/20 07:44:21;;;;;;;;;;;21.30;99.90;;;;;;4995694;28;19940;-44
2023/08/20 07:46:49;;;;;;;;;;;21.40;99.90;;;;;;4992170;28;20011;-44
2023/08/20 07:49:16;;;;;;;;;;;21.60;99.90;;;;;;5003422;28;19942;-44
2023/08/20 07:51:43;;;;;;;;;;;21.70;99.90;;;;;;4982306;28;19946;-44
2023/08/20 07:54:09;;;;;;;;;;;21.80;99.90;;;;;;5007033;28;19940;-44
2023/08/20 07:56:36;;;;;;;;;;;21.90;99.90;;;;;;5006891;28;19926;-43
2023/08/20 07:59:03;;;;;;;;;;;22.00;99.90;;;;;;5005857;28;20663;-44
2023/08/20 08:01:29;;;;;;;;;;;22.20;99.90;;;;;;5022622;28;20075;-44
2023/08/20 08:03:58;;;;;;;;;;;22.30;99.90;;;;;;5011003;28;19937;-44
2023/08/20 08:06:24;;;;;;;;;;;22.40;99.90;;;;;;5014441;28;19995;-44
2023/08/20 08:08:51;;;;;;;;;;;22.50;99.90;;;;;;5030984;28;19949;-43
2023/08/20 08:11:18;;;;;;;;;;;22.70;99.90;;;;;;5013007;28;19945;-44
2023/08/20 08:13:44;;;;;;;;;;;22.80;99.90;;;;;;5022964;28;20412;-44
2023/08/20 08:16:11;;;;;;;;;;;23.00;99.90;;;;;;5031467;28;20500;-44
2023/08/20 08:18:38;;;;;;;;;;;23.10;99.90;;;;;;5012462;28;19946;-44
2023/08/20 08:21:06;;;;;;;;;;;23.20;99.90;;;;;;4995671;28;19958;-44
2023/08/20 08:23:32;;;;;;;;;;;23.30;99.90;;;;;;5020058;28;19942;-44
2023/08/20 08:25:59;;;;;;;;;;;23.40;99.90;;;;;;5023227;28;19942;-44
2023/08/20 08:28:26;;;;;;;;;;;23.50;99.90;;;;;;5004452;28;19936;-44
2023/08/20 08:30:52;;;;;;;;;;;23.60;99.90;;;;;;5024408;28;19940;-43
2023/08/20 08:33:19;;;;;;;;;;;23.70;99.90;;;;;;5032415;28;19968;-44
2023/08/20 08:35:46;;;;;;;;;;;23.80;99.90;;;;;;5008910;28;19941;-44
2023/08/20 08:38:14;;;;;;;;;;;23.90;99.90;;;;;;5022316;28;19993;-44
2023/08/20 08:40:40;;;;;;;;;;;23.90;99.90;;;;;;5001281;28;20056;-44
2023/08/20 08:43:07;;;;;;;;;;;24.00;99.90;;;;;;5025171;28;20104;-44
2023/08/20 08:45:33;;;;;;;;;;;24.20;99.90;;;;;;5030976;28;19993;-44
2023/08/20 08:48:00;;;;;;;;;;;24.20;99.90;;;;;;5013276;28;19940;-44
2023/08/20 08:50:27;;;;;;;;;;;24.30;99.90;;;;;;5010337;28;19977;-43
2023/08/20 08:52:53;;;;;;;;;;;24.50;99.90;;;;;;5022241;28;19969;-43
2023/08/20 08:55:22;;;;;;;;;;;24.60;99.90;;;;;;5026374;28;19945;-44
2023/08/20 08:57:48;;;;;;;;;;;24.70;99.90;;;;;;5008907;28;20382;-44
2023/08/20 09:00:15;;;;;;;;;;;24.80;99.90;;;;;;5019480;28;19968;-44
2023/08/20 09:02:42;;;;;;;;;;;24.80;99.90;;;;;;5012201;28;19941;-44
2023/08/20 09:05:09;;;;;;;;;;;24.90;99.90;;;;;;4994936;28;20535;-43
2023/08/20 09:07:36;;;;;;;;;;;25.00;99.90;;;;;;5028211;28;20068;-44
2023/08/20 09:10:02;;;;;;;;;;;25.20;99.90;;;;;;5032118;28;19948;-44
2023/08/20 09:12:30;;;;;;;;;;;25.30;99.90;;;;;;5014459;28;19941;-43
2023/08/20 09:15:00;;;;;;;;;;;25.30;99.90;;;;;;4997986;28;20070;-44
2023/08/20 09:17:27;;;;;;;;;;;25.50;99.90;;;;;;4991404;28;19941;-44
2023/08/20 09:19:54;;;;;;;;;;;25.60;99.90;;;;;;5019987;28;19942;-44
2023/08/20 09:22:21;;;;;;;;;;;25.80;99.90;;;;;;5016860;28;19961;-44
2023/08/20 09:24:52;;;;;;;;;;;25.90;99.90;;;;;;5016623;28;20322;-44
2023/08/20 09:27:19;;;;;;;;;;;26.00;99.90;;;;;;5023955;28;19941;-44
2023/08/20 09:29:48;;;;;;;;;;;26.00;99.90;;;;;;5029117;28;19946;-44
2023/08/20 09:32:14;;;;;;;;;;;26.00;99.90;;;;;;5026749;28;20291;-44
2023/08/20 09:34:41;;;;;;;;;;;26.00;99.90;;;;;;5018411;28;20007;-43
2023/08/20 09:37:11;;;;;;;;;;;26.10;99.90;;;;;;5012848;28;20027;-45
2023/08/20 09:39:38;;;;;;;;;;;26.10;99.90;;;;;;5010932;28;20012;-43
2023/08/20 09:42:05;;;;;;;;;;;26.20;99.90;;;;;;5011302;28;19960;-44
2023/08/20 09:44:33;;;;;;;;;;;26.20;99.90;;;;;;5026510;28;19959;-44
2023/08/20 09:47:01;;;;;;;;;;;26.20;99.90;;;;;;5002406;28;19978;-44
2023/08/20 09:49:28;;;;;;;;;;;26.20;99.90;;;;;;5025507;28;19988;-44
2023/08/20 09:51:55;;;;;;;;;;;26.30;99.90;;;;;;5021747;28;19972;-44
2023/08/20 09:54:22;;;;;;;;;;;26.40;99.90;;;;;;5018078;28;19939;-43
2023/08/20 09:56:51;;;;;;;;;;;26.60;99.90;;;;;;5021247;28;20015;-44
2023/08/20 09:59:18;;;;;;;;;;;26.60;99.90;;;;;;5027059;28;19941;-44
2023/08/20 10:01:44;;;;;;;;;;;26.70;99.90;;;;;;5012475;28;19956;-45
2023/08/20 10:04:13;;;;;;;;;;;26.70;99.90;;;;;;5022127;28;19945;-43
2023/08/20 10:06:40;;;;;;;;;;;26.80;99.90;;;;;;5001941;28;19985;-44
2023/08/20 10:09:06;;;;;;;;;;;26.80;99.90;;;;;;5004012;28;19932;-44
2023/08/20 10:11:33;;;;;;;;;;;26.90;99.90;;;;;;5008816;28;19936;-44
2023/08/20 10:14:00;;;;;;;;;;;27.10;99.90;;;;;;5012551;28;19990;-45
2023/08/20 10:16:28;;;;;;;;;;;27.20;99.90;;;;;;5028604;28;19939;-44
2023/08/20 10:18:55;;;;;;;;;;;27.30;99.90;;;;;;4995468;28;19933;-44
2023/08/20 10:21:24;;;;;;;;;;;27.30;99.90;;;;;;5020612;28;20033;-44
2023/08/20 10:23:51;;;;;;;;;;;27.30;99.90;;;;;;5023524;28;20346;-44
2023/08/20 10:26:18;;;;;;;;;;;27.40;99.90;;;;;;5028209;28;19943;-43
2023/08/20 10:28:45;;;;;;;;;;;27.50;99.90;;;;;;5007075;28;20317;-43
2023/08/20 10:31:12;;;;;;;;;;;27.60;99.90;;;;;;5003445;28;20435;-45
2023/08/20 10:33:39;;;;;;;;;;;27.70;99.90;;;;;;5002354;28;21622;-44
2023/08/20 10:36:10;;;;;;;;;;;27.70;99.90;;;;;;5007079;28;19990;-44
2023/08/20 10:38:38;;;;;;;;;;;27.60;99.90;;;;;;5029984;28;19944;-44
2023/08/20 10:41:06;;;;;;;;;;;27.60;99.90;;;;;;5013890;28;20027;-44
2023/08/20 10:43:34;;;;;;;;;;;27.70;99.90;;;;;;5028549;28;19936;-44
2023/08/20 10:46:07;;;;;;;;;;;27.70;99.90;;;;;;5021575;28;19937;-44
2023/08/20 10:48:34;;;;;;;;;;;27.80;99.90;;;;;;5008092;28;19965;-44
2023/08/20 10:51:11;;;;;;;;;;;27.90;99.70;;;;;;5021058;28;19940;-45
2023/08/20 10:53:39;;;;;;;;;;;27.90;99.80;;;;;;5021136;28;20318;-44
2023/08/20 10:56:09;;;;;;;;;;;28.00;99.90;;;;;;5024927;28;20388;-44
2023/08/20 10:58:36;;;;;;;;;;;28.20;99.90;;;;;;5032130;28;19992;-45
2023/08/20 11:01:21;;;;;;;;;;;28.30;99.90;;;;;;5004979;28;19965;-45
2023/08/20 11:03:49;;;;;;;;;;;28.40;99.90;;;;;;5032114;28;19959;-44
2023/08/20 11:06:16;;;;;;;;;;;28.40;98.90;;;;;;5009219;28;19944;-44
2023/08/20 11:08:44;;;;;;;;;;;28.40;98.90;;;;;;4998506;28;19965;-45
2023/08/20 11:11:11;;;;;;;;;;;28.40;98.70;;;;;;5012792;28;19950;-45
2023/08/20 11:13:38;;;;;;;;;;;28.40;99.30;;;;;;5021616;28;19926;-45
2023/08/20 11:16:04;;;;;;;;;;;28.50;99.40;;;;;;5011543;28;19946;-45
2023/08/20 11:18:31;;;;;;;;;;;28.60;97.70;;;;;;5015762;28;19986;-45
2023/08/20 11:20:58;;;;;;;;;;;28.70;98.10;;;;;;5009955;28;19954;-45
2023/08/20 11:23:25;;;;;;;;;;;28.80;98.20;;;;;;5004709;28;19969;-45
2023/08/20 11:25:53;;;;;;;;;;;28.90;97.70;;;;;;5011991;28;20029;-44
2023/08/20 11:28:20;;;;;;;;;;;28.90;95.00;;;;;;5002050;28;20002;-45
2023/08/20 11:30:47;;;;;;;;;;;28.90;95.30;;;;;;5014677;28;20485;-45
2023/08/20 11:33:13;;;;;;;;;;;28.90;95.10;;;;;;5028805;28;19936;-45
2023/08/20 11:35:40;;;;;;;;;;;28.80;95.30;;;;;;5013204;28;19941;-44
2023/08/20 11:38:07;;;;;;;;;;;28.80;96.50;;;;;;5001762;28;19984;-44
2023/08/20 11:40:33;;;;;;;;;;;28.90;95.20;;;;;;5033056;28;20001;-44
2023/08/20 11:43:02;;;;;;;;;;;29.00;96.30;;;;;;5021844;28;19957;-44
2023/08/20 11:45:28;;;;;;;;;;;29.10;96.30;;;;;;5002650;28;19954;-44
2023/08/20 11:47:56;;;;;;;;;;;29.20;95.80;;;;;;5009594;28;19943;-44
2023/08/20 11:50:23;;;;;;;;;;;29.30;96.20;;;;;;4998605;28;20387;-45
2023/08/20 11:52:50;;;;;;;;;;;29.30;95.70;;;;;;5029980;28;19943;-43
2023/08/20 11:55:16;;;;;;;;;;;29.30;95.00;;;;;;5016930;28;19983;-44
2023/08/20 11:57:43;;;;;;;;;;;29.40;94.90;;;;;;5030312;28;19987;-44
2023/08/20 12:00:12;;;;;;;;;;;29.40;95.00;;;;;;5016662;28;20344;-44
2023/08/20 12:02:41;;;;;;;;;;;29.40;94.20;;;;;;5027208;28;20002;-44
2023/08/20 12:05:08;;;;;;;;;;;29.40;94.50;;;;;;5032021;28;19948;-45
2023/08/20 12:07:34;;;;;;;;;;;29.50;93.30;;;;;;5028251;28;19939;-44
2023/08/20 12:10:03;;;;;;;;;;;29.50;93.70;;;;;;5044495;28;19996;-43
2023/08/20 12:12:30;;;;;;;;;;;29.60;94.70;;;;;;5013999;28;19967;-44
2023/08/20 12:14:56;;;;;;;;;;;29.70;94.60;;;;;;5015077;28;20001;-44
2023/08/20 12:17:24;;;;;;;;;;;29.80;94.00;;;;;;5013189;28;19943;-45
2023/08/20 12:19:51;;;;;;;;;;;29.80;93.40;;;;;;4999332;28;19940;-43
2023/08/20 12:22:18;;;;;;;;;;;29.70;93.00;;;;;;5019048;28;19952;-44
2023/08/20 12:24:44;;;;;;;;;;;29.50;93.40;;;;;;5006274;28;20039;-44
2023/08/20 12:27:11;;;;;;;;;;;29.40;94.50;;;;;;5017969;28;19979;-43
2023/08/20 12:29:38;;;;;;;;;;;29.30;94.30;;;;;;5010737;28;19947;-45
2023/08/20 12:32:07;;;;;;;;;;;29.10;94.80;;;;;;5026896;28;20385;-45
2023/08/20 12:34:35;;;;;;;;;;;29.20;94.10;;;;;;4999158;28;19931;-45
2023/08/20 12:37:02;;;;;;;;;;;29.30;94.80;;;;;;5022382;28;19963;-44
2023/08/20 12:39:28;;;;;;;;;;;29.40;94.10;;;;;;5029082;28;19937;-45
2023/08/20 12:41:55;;;;;;;;;;;29.40;94.40;;;;;;5000671;28;20375;-44
2023/08/20 12:44:22;;;;;;;;;;;29.20;95.00;;;;;;5029913;28;19952;-45
2023/08/20 12:46:48;;;;;;;;;;;29.20;94.30;;;;;;5002387;28;19925;-45
2023/08/20 12:49:15;;;;;;;;;;;29.00;94.60;;;;;;5018946;28;19959;-45
2023/08/20 12:51:43;;;;;;;;;;;28.80;95.10;;;;;;5013520;28;20396;-45
2023/08/20 12:54:11;;;;;;;;;;;28.80;95.70;;;;;;5003948;28;19939;-45
2023/08/20 12:56:37;;;;;;;;;;;28.90;94.40;;;;;;5028052;28;19992;-44
2023/08/20 12:59:04;;;;;;;;;;;28.90;94.30;;;;;;5009817;28;19937;-44
2023/08/20 13:01:31;;;;;;;;;;;28.80;95.60;;;;;;5021494;28;19963;-45
2023/08/20 13:03:58;;;;;;;;;;;28.90;94.90;;;;;;5028878;28;20350;-44
2023/08/20 13:06:25;;;;;;;;;;;28.90;93.60;;;;;;5012239;28;19943;-44
2023/08/20 13:08:54;;;;;;;;;;;28.90;93.90;;;;;;5030385;28;20335;-44
2023/08/20 13:11:21;;;;;;;;;;;28.90;95.10;;;;;;5013066;28;19941;-45
2023/08/20 13:13:47;;;;;;;;;;;28.80;94.80;;;;;;5010924;28;19943;-44
2023/08/20 13:16:14;;;;;;;;;;;28.70;94.20;;;;;;5011256;28;19925;-44
2023/08/20 13:18:41;;;;;;;;;;;28.60;95.40;;;;;;5005064;28;19992;-44
2023/08/20 13:21:09;;;;;;;;;;;28.70;95.90;;;;;;5013775;28;19983;-45
2023/08/20 13:23:35;;;;;;;;;;;28.70;95.10;;;;;;5030086;28;20412;-45
2023/08/20 13:26:03;;;;;;;;;;;28.70;94.50;;;;;;5018462;28;19997;-44
2023/08/20 13:28:30;;;;;;;;;;;28.60;94.60;;;;;;5017682;28;19979;-43
2023/08/20 13:30:57;;;;;;;;;;;28.60;94.80;;;;;;5015120;28;19994;-44
2023/08/20 13:33:23;;;;;;;;;;;28.80;94.20;;;;;;5016032;28;19940;-45
2023/08/20 13:35:51;;;;;;;;;;;28.90;93.70;;;;;;5020388;28;19939;-43
2023/08/20 13:38:18;;;;;;;;;;;28.90;93.50;;;;;;5035710;28;20435;-45
2023/08/20 13:40:45;;;;;;;;;;;28.90;93.90;;;;;;5018047;28;19949;-45
2023/08/20 13:43:13;;;;;;;;;;;29.00;94.20;;;;;;5034646;28;20485;-44
2023/08/20 13:45:40;;;;;;;;;;;29.10;92.90;;;;;;5017888;28;20388;-44
2023/08/20 13:48:07;;;;;;;;;;;29.20;93.30;;;;;;5033975;28;19929;-44
2023/08/20 13:50:34;;;;;;;;;;;29.30;94.30;;;;;;5006316;28;20032;-44
2023/08/20 13:53:00;;;;;;;;;;;29.50;93.40;;;;;;5028159;28;19949;-43
2023/08/20 13:55:27;;;;;;;;;;;29.60;93.60;;;;;;5025839;28;19936;-44
2023/08/20 13:57:54;;;;;;;;;;;29.80;93.40;;;;;;5009474;28;19945;-44
2023/08/20 14:00:22;;;;;;;;;;;29.90;91.30;;;;;;5010929;28;19956;-44
2023/08/20 14:02:49;;;;;;;;;;;29.90;91.20;;;;;;5017029;28;19956;-44
2023/08/20 14:05:15;;;;;;;;;;;29.90;92.10;;;;;;5029951;28;19940;-44
2023/08/20 14:07:42;;;;;;;;;;;29.80;92.60;;;;;;5025336;28;19960;-44
2023/08/20 14:10:09;;;;;;;;;;;29.80;92.40;;;;;;5033023;28;19925;-45
2023/08/20 14:12:36;;;;;;;;;;;29.90;91.50;;;;;;5019460;28;20010;-44
2023/08/20 14:15:03;;;;;;;;;;;30.00;92.30;;;;;;5009739;28;19947;-44